createdAt,value
2018-06-25T00:00:31.942Z,85.30
2018-06-25T00:03:02.489Z,85.40
2018-06-25T00:05:33.066Z,85.30
2018-06-25T00:08:03.689Z,84.50
2018-06-25T00:10:34.406Z,84.60
2018-06-25T00:13:04.987Z,84.70
2018-06-25T00:15:35.853Z,85.10
2018-06-25T00:18:07.142Z,85.00
2018-06-25T00:20:37.776Z,84.90
2018-06-25T00:23:08.499Z,85.10
2018-06-25T00:25:39.239Z,85.10
2018-06-25T00:28:09.802Z,85.30
2018-06-25T00:30:40.417Z,85.20
2018-06-25T00:33:10.916Z,85.20
2018-06-25T00:35:41.511Z,85.30
2018-06-25T00:38:12.090Z,85.30
2018-06-25T00:40:42.745Z,85.30
2018-06-25T00:43:13.272Z,85.50
2018-06-25T00:45:43.870Z,85.70
2018-06-25T00:48:14.427Z,86.10
2018-06-25T00:50:44.969Z,86.30
2018-06-25T00:53:15.471Z,86.90
2018-06-25T00:55:46.155Z,86.50
2018-06-25T00:58:17.134Z,86.80
2018-06-25T01:00:47.721Z,86.80
2018-06-25T01:03:18.269Z,87.00
2018-06-25T01:05:48.828Z,87.00
2018-06-25T01:08:19.367Z,87.00
2018-06-25T01:10:49.964Z,87.00
2018-06-25T01:13:20.505Z,86.90
2018-06-25T01:15:51.065Z,86.60
2018-06-25T01:18:21.616Z,86.60
2018-06-25T01:20:52.187Z,86.30
2018-06-25T01:23:22.758Z,86.30
2018-06-25T01:25:53.437Z,86.30
2018-06-25T01:28:24.531Z,86.30
2018-06-25T01:30:55.110Z,85.80
2018-06-25T01:33:25.596Z,86.10
2018-06-25T01:35:56.141Z,86.20
2018-06-25T01:38:26.621Z,86.00
2018-06-25T01:40:57.221Z,86.20
2018-06-25T01:43:27.738Z,85.90
2018-06-25T01:45:58.263Z,85.80
2018-06-25T01:48:28.819Z,85.50
2018-06-25T01:50:59.411Z,85.80
2018-06-25T01:53:30.855Z,86.70
2018-06-25T01:58:31.761Z,86.90
2018-06-25T02:01:02.327Z,86.60
2018-06-25T02:03:32.891Z,85.90
2018-06-25T02:06:03.442Z,85.90
2018-06-25T02:08:34.007Z,85.90
2018-06-25T02:11:04.621Z,86.00
2018-06-25T02:13:35.173Z,86.20
2018-06-25T02:16:05.946Z,86.80
2018-06-25T02:18:36.510Z,87.10
2018-06-25T02:21:07.269Z,87.00
2018-06-25T02:23:37.833Z,87.20
2018-06-25T02:26:08.563Z,87.60
2018-06-25T02:28:39.131Z,87.50
2018-06-25T02:31:09.718Z,87.30
2018-06-25T02:36:10.539Z,87.50
2018-06-25T02:38:41.636Z,88.00
2018-06-25T02:41:12.232Z,88.40
2018-06-25T02:43:42.955Z,89.50
2018-06-25T02:46:13.526Z,88.90
2018-06-25T02:48:45.518Z,89.80
2018-06-25T02:51:16.090Z,89.40
2018-06-25T02:53:46.773Z,89.40
2018-06-25T02:56:17.481Z,89.00
2018-06-25T02:58:48.255Z,88.80
2018-06-25T03:01:18.908Z,88.50
2018-06-25T03:03:49.555Z,88.30
2018-06-25T03:06:20.093Z,88.30
2018-06-25T03:08:50.987Z,88.30
2018-06-25T03:11:21.554Z,87.70
2018-06-25T03:13:52.182Z,87.00
2018-06-25T03:16:22.713Z,87.20
2018-06-25T03:18:54.150Z,87.50
2018-06-25T03:23:54.779Z,87.40
2018-06-25T03:26:25.407Z,87.50
2018-06-25T03:28:55.909Z,87.60
2018-06-25T03:31:26.470Z,87.40
2018-06-25T03:33:57.506Z,87.60
2018-06-25T03:36:28.078Z,88.20
2018-06-25T03:38:58.597Z,87.50
2018-06-25T03:41:29.309Z,87.30
2018-06-25T03:43:59.966Z,88.10
2018-06-25T03:46:30.530Z,87.60
2018-06-25T03:49:01.097Z,87.30
2018-06-25T03:51:31.649Z,87.60
2018-06-25T03:54:02.274Z,87.30
2018-06-25T03:56:32.854Z,87.30
2018-06-25T03:59:03.730Z,86.90
2018-06-25T04:01:34.329Z,86.70
2018-06-25T04:04:04.985Z,86.80
2018-06-25T04:06:35.600Z,86.60
2018-06-25T04:09:10.389Z,86.50
2018-06-25T04:11:41.474Z,85.90
2018-06-25T04:14:12.110Z,85.90
2018-06-25T04:16:42.647Z,85.80
2018-06-25T04:19:13.270Z,85.90
2018-06-25T04:21:43.849Z,85.80
2018-06-25T04:24:14.422Z,85.60
2018-06-25T04:26:45.035Z,84.90
2018-06-25T04:29:15.573Z,84.70
2018-06-25T04:31:46.132Z,84.60
2018-06-25T04:34:16.646Z,84.20
2018-06-25T04:36:47.256Z,84.90
2018-06-25T04:39:17.829Z,84.10
2018-06-25T04:41:48.416Z,84.00
2018-06-25T04:44:18.980Z,83.50
2018-06-25T04:46:49.520Z,83.30
2018-06-25T04:49:20.067Z,83.40
2018-06-25T04:51:50.648Z,83.20
2018-06-25T04:54:21.187Z,83.30
2018-06-25T04:56:51.885Z,83.30
2018-06-25T04:59:22.724Z,83.30
2018-06-25T05:01:53.338Z,83.40
2018-06-25T05:04:23.976Z,83.70
2018-06-25T05:06:54.516Z,83.40
2018-06-25T05:09:25.197Z,83.70
2018-06-25T05:11:55.758Z,84.40
2018-06-25T05:14:28.246Z,84.60
2018-06-25T05:16:58.805Z,84.70
2018-06-25T05:19:29.362Z,85.00
2018-06-25T05:21:59.952Z,85.00
2018-06-25T05:24:30.508Z,84.90
2018-06-25T05:27:01.163Z,86.10
2018-06-25T05:29:31.716Z,85.30
2018-06-25T05:32:02.519Z,86.10
2018-06-25T05:34:33.053Z,86.10
2018-06-25T05:37:03.753Z,86.10
2018-06-25T05:39:34.343Z,86.30
2018-06-25T05:42:06.115Z,86.60
2018-06-25T05:44:36.708Z,87.00
2018-06-25T05:47:07.322Z,87.40
2018-06-25T05:49:37.847Z,87.60
2018-06-25T05:52:08.507Z,87.70
2018-06-25T05:54:39.094Z,87.70
2018-06-25T05:57:09.710Z,87.70
2018-06-25T05:59:40.714Z,88.10
2018-06-25T06:02:11.295Z,88.10
2018-06-25T06:04:41.836Z,87.50
2018-06-25T06:07:12.643Z,87.10
2018-06-25T06:09:43.220Z,87.30
2018-06-25T06:12:13.897Z,87.60
2018-06-25T06:14:44.468Z,87.00
2018-06-25T06:17:15.065Z,84.90
2018-06-25T06:19:45.630Z,84.80
2018-06-25T06:22:16.240Z,85.10
2018-06-25T06:24:46.816Z,86.20
2018-06-25T06:27:17.410Z,84.50
2018-06-25T06:29:47.923Z,83.30
2018-06-25T06:32:18.481Z,82.90
2018-06-25T06:34:49.011Z,82.40
2018-06-25T06:37:19.600Z,82.70
2018-06-25T06:39:50.122Z,82.70
2018-06-25T06:42:20.665Z,82.40
2018-06-25T06:44:51.221Z,82.10
2018-06-25T06:47:21.797Z,82.30
2018-06-25T06:49:52.380Z,82.00
2018-06-25T06:52:23.061Z,81.20
2018-06-25T06:54:54.024Z,81.00
2018-06-25T06:57:24.664Z,80.50
2018-06-25T06:59:55.177Z,80.20
2018-06-25T07:02:25.721Z,80.20
2018-06-25T07:04:56.285Z,80.30
2018-06-25T07:07:26.831Z,78.10
2018-06-25T07:09:57.332Z,76.90
2018-06-25T07:12:28.083Z,75.00
2018-06-25T07:14:58.650Z,71.60
2018-06-25T07:17:29.225Z,72.00
2018-06-25T07:19:59.775Z,72.30
2018-06-25T07:22:30.318Z,71.70
2018-06-25T07:25:00.892Z,73.90
2018-06-25T07:27:31.485Z,72.40
2018-06-25T07:30:02.123Z,71.00
2018-06-25T07:32:32.649Z,68.90
2018-06-25T07:35:03.509Z,66.80
2018-06-25T07:37:34.109Z,68.30
2018-06-25T07:40:04.673Z,69.70
2018-06-25T07:42:35.257Z,68.00
2018-06-25T07:45:05.829Z,65.80
2018-06-25T07:47:36.393Z,65.90
2018-06-25T07:52:37.097Z,66.20
2018-06-25T07:55:07.654Z,65.60
2018-06-25T07:57:38.217Z,60.70
2018-06-25T08:00:08.858Z,58.30
2018-06-25T08:02:39.385Z,56.40
2018-06-25T08:05:10.305Z,56.90
2018-06-25T08:10:10.992Z,57.30
2018-06-25T08:12:41.674Z,55.90
2018-06-25T08:15:12.189Z,56.90
2018-06-25T08:17:42.745Z,57.70
2018-06-25T08:20:13.283Z,57.90
2018-06-25T08:25:13.992Z,55.00
2018-06-25T08:27:44.519Z,53.90
2018-06-25T08:30:15.153Z,54.40
2018-06-25T08:32:45.612Z,53.00
2018-06-25T08:37:46.552Z,54.40
2018-06-25T08:40:17.274Z,52.90
2018-06-25T08:42:48.116Z,52.70
2018-06-25T08:45:18.678Z,52.50
2018-06-25T08:47:49.177Z,50.90
2018-06-25T08:50:19.734Z,51.90
2018-06-25T08:52:50.333Z,51.10
2018-06-25T08:55:20.878Z,49.90
2018-06-25T08:57:51.426Z,50.30
2018-06-25T09:00:22.069Z,49.90
2018-06-25T09:02:52.629Z,50.80
2018-06-25T09:05:23.197Z,51.70
2018-06-25T09:07:53.745Z,53.00
2018-06-25T09:10:24.240Z,52.30
2018-06-25T09:12:54.821Z,53.40
2018-06-25T09:15:25.419Z,55.00
2018-06-25T09:17:55.933Z,55.60
2018-06-25T09:20:26.808Z,56.50
2018-06-25T09:22:57.386Z,56.60
2018-06-25T09:25:28.013Z,57.00
2018-06-25T09:28:05.057Z,56.10
2018-06-25T09:30:35.604Z,56.20
2018-06-25T09:33:06.393Z,57.90
2018-06-25T09:38:07.205Z,55.30
2018-06-25T09:40:37.705Z,55.10
2018-06-25T09:43:08.246Z,54.40
2018-06-25T09:45:38.770Z,55.50
2018-06-25T09:48:09.330Z,56.70
2018-06-25T09:50:39.893Z,56.80
2018-06-25T09:55:40.496Z,55.30
2018-06-25T09:58:11.073Z,55.30
2018-06-25T10:00:46.799Z,55.60
2018-06-25T10:03:17.349Z,55.70
2018-06-25T10:08:17.991Z,56.10
2018-06-25T10:10:48.528Z,54.50
2018-06-25T10:15:49.158Z,53.30
2018-06-25T10:18:19.737Z,51.80
2018-06-25T10:20:50.272Z,50.30
2018-06-25T10:23:20.787Z,49.50
2018-06-25T10:25:51.284Z,49.30
2018-06-25T10:28:22.289Z,48.60
2018-06-25T10:30:52.817Z,48.50
2018-06-25T10:33:23.393Z,48.50
2018-06-25T10:35:53.929Z,49.60
2018-06-25T10:38:24.422Z,48.80
2018-06-25T10:40:54.968Z,49.80
2018-06-25T10:45:55.598Z,47.90
2018-06-25T10:48:26.171Z,48.10
2018-06-25T10:50:56.717Z,48.00
2018-06-25T10:53:27.245Z,48.80
2018-06-25T10:55:57.773Z,48.50
2018-06-25T10:58:28.298Z,45.20
2018-06-25T11:00:58.867Z,44.50
2018-06-25T11:03:29.732Z,44.20
2018-06-25T11:06:00.301Z,44.20
2018-06-25T11:08:30.798Z,44.60
2018-06-25T11:11:01.386Z,45.40
2018-06-25T11:13:31.995Z,45.50
2018-06-25T11:18:32.560Z,44.10
2018-06-25T11:21:03.166Z,42.80
2018-06-25T11:23:33.661Z,42.50
2018-06-25T11:26:04.226Z,41.20
2018-06-25T11:28:34.775Z,41.40
2018-06-25T11:31:05.956Z,41.50
2018-06-25T11:36:06.673Z,41.90
2018-06-25T11:38:37.241Z,42.60
2018-06-25T11:41:07.779Z,43.50
2018-06-25T11:43:38.332Z,43.70
2018-06-25T11:46:08.873Z,43.60
2018-06-25T11:48:40.241Z,44.60
2018-06-25T11:51:10.799Z,44.80
2018-06-25T11:53:41.290Z,45.40
2018-06-25T11:56:11.840Z,47.00
2018-06-25T11:58:42.397Z,47.40
2018-06-25T12:01:12.933Z,47.10
2018-06-25T12:03:43.557Z,47.80
2018-06-25T12:06:14.078Z,48.90
2018-06-25T12:11:14.766Z,51.50
2018-06-25T12:13:45.414Z,51.20
2018-06-25T12:16:15.941Z,51.10
2018-06-25T12:18:46.582Z,50.60
2018-06-25T12:21:17.170Z,50.80
2018-06-25T12:23:47.769Z,52.30
2018-06-25T12:26:19.949Z,53.90
2018-06-25T12:28:50.626Z,56.50
2018-06-25T12:31:21.354Z,57.20
2018-06-25T12:33:51.932Z,58.30
2018-06-25T12:36:22.514Z,62.10
2018-06-25T12:38:53.150Z,64.40
2018-06-25T12:41:23.753Z,65.90
2018-06-25T12:43:54.345Z,68.50
2018-06-25T12:46:24.885Z,72.10
2018-06-25T12:48:55.561Z,73.00
2018-06-25T12:51:26.108Z,72.40
2018-06-25T12:53:57.077Z,67.40
2018-06-25T12:56:27.716Z,66.80
2018-06-25T13:01:28.473Z,65.70
2018-06-25T13:03:58.937Z,67.80
2018-06-25T13:06:29.524Z,67.80
2018-06-25T13:09:00.826Z,66.40
2018-06-25T13:11:31.350Z,66.00
2018-06-25T13:14:01.901Z,65.50
2018-06-25T13:16:32.517Z,65.90
2018-06-25T13:19:03.122Z,67.20
2018-06-25T13:21:33.707Z,67.90
2018-06-25T13:24:04.805Z,68.00
2018-06-25T13:26:35.373Z,66.60
2018-06-25T13:29:06.083Z,66.20
2018-06-25T13:31:36.694Z,67.40
2018-06-25T13:34:07.274Z,66.50
2018-06-25T13:36:37.866Z,65.30
2018-06-25T13:39:09.992Z,59.80
2018-06-25T13:41:40.826Z,55.90
2018-06-25T13:46:42.614Z,54.70
2018-06-25T13:49:13.170Z,53.90
2018-06-25T13:51:43.734Z,53.90
2018-06-25T13:54:14.329Z,55.00
2018-06-25T13:56:44.944Z,55.20
2018-06-25T13:59:15.544Z,55.90
2018-06-25T14:01:46.131Z,56.80
2018-06-25T14:04:16.884Z,56.80
2018-06-25T14:06:47.455Z,56.60
2018-06-25T14:09:18.125Z,53.50
2018-06-25T14:11:48.747Z,53.50
2018-06-25T14:14:19.373Z,52.50
2018-06-25T14:16:50.122Z,50.80
2018-06-25T14:19:20.589Z,46.50
2018-06-25T14:21:51.102Z,46.80
2018-06-25T14:24:27.009Z,43.30
2018-06-25T14:27:02.683Z,42.50
2018-06-25T14:29:36.422Z,40.90
2018-06-25T14:32:12.358Z,40.70
2018-06-25T14:34:43.601Z,40.90
2018-06-25T14:37:14.158Z,39.30
2018-06-25T14:39:44.786Z,40.00
2018-06-25T14:42:15.686Z,40.90
2018-06-25T14:44:46.280Z,38.90
2018-06-25T14:47:16.776Z,39.80
2018-06-25T14:49:47.505Z,38.70
2018-06-25T14:52:18.102Z,38.40
2018-06-25T14:54:48.668Z,36.60
2018-06-25T14:57:19.329Z,35.50
2018-06-25T14:59:50.469Z,36.30
2018-06-25T15:04:51.382Z,41.50
2018-06-25T15:07:21.968Z,44.30
2018-06-25T15:09:52.628Z,46.60
2018-06-25T15:12:23.263Z,48.40
2018-06-25T15:14:53.882Z,49.40
2018-06-25T15:17:24.458Z,50.30
2018-06-25T15:19:55.056Z,52.30
2018-06-25T15:22:25.626Z,51.10
2018-06-25T15:24:56.260Z,51.80
2018-06-25T15:27:26.853Z,51.80
2018-06-25T15:29:57.818Z,51.50
2018-06-25T15:32:32.030Z,52.00
2018-06-25T15:35:02.617Z,48.60
2018-06-25T15:37:33.194Z,48.00
2018-06-25T15:40:03.926Z,48.70
2018-06-25T15:42:34.510Z,48.50
2018-06-25T15:45:05.318Z,49.50
2018-06-25T15:47:36.050Z,50.70
2018-06-25T15:52:36.881Z,51.70
2018-06-25T15:55:07.525Z,52.70
2018-06-25T16:00:08.480Z,54.10
2018-06-25T16:02:39.090Z,55.30
2018-06-25T16:05:09.711Z,56.10
2018-06-25T16:07:40.379Z,56.20
2018-06-25T16:10:11.118Z,56.30
2018-06-25T16:12:41.778Z,56.90
2018-06-25T16:15:12.413Z,57.30
2018-06-25T16:17:43.159Z,57.30
2018-06-25T16:20:13.781Z,57.90
2018-06-25T16:22:44.420Z,58.80
2018-06-25T16:25:15.081Z,59.30
2018-06-25T16:27:45.746Z,59.70
2018-06-25T16:32:46.537Z,60.70
2018-06-25T16:35:17.205Z,61.20
2018-06-25T16:37:47.819Z,61.50
2018-06-25T16:40:18.434Z,62.10
2018-06-25T16:42:49.035Z,63.50
2018-06-25T16:45:19.737Z,63.90
2018-06-25T16:47:50.549Z,64.40
2018-06-25T16:50:21.161Z,65.10
2018-06-25T16:52:51.775Z,65.20
2018-06-25T16:55:22.373Z,63.80
2018-06-25T16:57:52.930Z,63.20
2018-06-25T17:00:23.518Z,63.60
2018-06-25T17:02:54.612Z,64.60
2018-06-25T17:05:25.396Z,65.70
2018-06-25T17:07:55.978Z,66.30
2018-06-25T17:10:26.714Z,67.80
2018-06-25T17:12:57.363Z,67.40
2018-06-25T17:15:28.197Z,68.50
2018-06-25T17:17:58.830Z,69.50
2018-06-25T17:20:29.374Z,71.30
2018-06-25T17:22:59.985Z,71.40
2018-06-25T17:25:30.644Z,72.60
2018-06-25T17:28:01.177Z,72.80
2018-06-25T17:30:31.794Z,73.10
2018-06-25T17:33:02.797Z,74.10
2018-06-25T17:35:33.414Z,74.90
2018-06-25T17:38:04.004Z,75.30
2018-06-25T17:40:34.621Z,74.30
2018-06-25T17:43:05.563Z,73.10
2018-06-25T17:45:37.034Z,69.50
2018-06-25T17:48:07.826Z,65.80
2018-06-25T17:50:38.486Z,64.50
2018-06-25T17:53:09.814Z,64.20
2018-06-25T17:55:40.405Z,65.10
2018-06-25T17:58:11.030Z,66.00
2018-06-25T18:00:41.690Z,66.50
2018-06-25T18:03:12.917Z,65.90
2018-06-25T18:05:44.051Z,65.20
2018-06-25T18:08:15.040Z,65.10
2018-06-25T18:10:45.846Z,65.80
2018-06-25T18:13:16.486Z,66.50
2018-06-25T18:15:47.115Z,67.00
2018-06-25T18:18:22.798Z,67.50
2018-06-25T18:20:53.676Z,68.40
2018-06-25T18:23:24.282Z,69.20
2018-06-25T18:25:54.993Z,68.50
2018-06-25T18:28:25.735Z,69.30
2018-06-25T18:33:26.478Z,69.80
2018-06-25T18:35:57.259Z,69.90
2018-06-25T18:38:27.841Z,69.90
2018-06-25T18:40:58.854Z,70.40
2018-06-25T18:43:29.477Z,71.00
2018-06-25T18:46:00.055Z,71.80
2018-06-25T18:48:30.691Z,72.90
2018-06-25T18:51:01.392Z,72.00
2018-06-25T18:53:33.262Z,71.20
2018-06-25T18:56:03.965Z,71.70
2018-06-25T18:58:34.609Z,71.90
2018-06-25T19:01:05.252Z,72.50
2018-06-25T19:03:35.860Z,72.60
2018-06-25T19:06:06.591Z,72.80
2018-06-25T19:08:37.171Z,73.10
2018-06-25T19:11:07.778Z,73.90
2018-06-25T19:13:38.357Z,74.30
2018-06-25T19:18:39.241Z,75.50
2018-06-25T19:21:09.922Z,76.00
2018-06-25T19:23:41.110Z,75.80
2018-06-25T19:26:11.753Z,76.60
2018-06-25T19:28:42.353Z,77.00
2018-06-25T19:31:12.887Z,77.30
2018-06-25T19:33:43.446Z,78.50
2018-06-25T19:36:14.123Z,78.10
2018-06-25T19:38:44.676Z,78.50
2018-06-25T19:41:15.273Z,78.70
2018-06-25T19:43:45.801Z,78.80
2018-06-25T19:46:16.438Z,79.90
2018-06-25T19:48:47.089Z,80.10
2018-06-25T19:51:17.732Z,79.60
2018-06-25T19:53:48.681Z,79.30
2018-06-25T19:56:19.378Z,79.50
2018-06-25T19:58:49.909Z,79.30
2018-06-25T20:01:20.493Z,79.50
2018-06-25T20:03:51.121Z,79.60
2018-06-25T20:06:21.721Z,80.00
2018-06-25T20:08:52.332Z,80.50
2018-06-25T20:11:23.018Z,81.30
2018-06-25T20:13:53.612Z,81.60
2018-06-25T20:16:24.294Z,82.10
2018-06-25T20:18:54.879Z,82.60
2018-06-25T20:21:25.434Z,83.00
2018-06-25T20:23:55.989Z,82.90
2018-06-25T20:26:26.673Z,83.10
2018-06-25T20:28:57.297Z,83.20
2018-06-25T20:31:27.910Z,82.90
2018-06-25T20:36:28.606Z,83.40
2018-06-25T20:38:59.407Z,84.00
2018-06-25T20:41:30.279Z,84.10
2018-06-25T20:44:01.036Z,84.10
2018-06-25T20:46:31.642Z,84.30
2018-06-25T20:49:02.231Z,84.60
2018-06-25T20:51:33.011Z,84.70
2018-06-25T20:54:03.735Z,84.80
2018-06-25T20:56:34.371Z,84.90
2018-06-25T20:59:05.143Z,85.30
2018-06-25T21:01:35.737Z,85.50
2018-06-25T21:04:06.393Z,85.60
2018-06-25T21:06:37.026Z,86.10
2018-06-25T21:09:11.098Z,86.30
2018-06-25T21:11:42.451Z,86.60
2018-06-25T21:14:12.977Z,86.90
2018-06-25T21:16:43.786Z,86.80
2018-06-25T21:19:14.333Z,87.20
2018-06-25T21:21:44.923Z,87.30
2018-06-25T21:24:15.461Z,87.10
2018-06-25T21:26:46.082Z,86.70
2018-06-25T21:29:16.633Z,86.80
2018-06-25T21:31:47.256Z,86.50
2018-06-25T21:34:17.828Z,86.80
2018-06-25T21:36:48.422Z,86.60
2018-06-25T21:39:19.017Z,86.20
2018-06-25T21:44:41.341Z,86.50
2018-06-25T21:47:12.010Z,87.30
2018-06-25T21:49:42.598Z,86.80
2018-06-25T21:52:13.328Z,87.00
2018-06-25T21:54:44.043Z,86.90
2018-06-25T21:57:14.598Z,87.00
2018-06-25T21:59:45.159Z,87.30
2018-06-25T22:02:16.341Z,87.80
2018-06-25T22:04:46.871Z,88.00
2018-06-25T22:07:17.838Z,88.10
2018-06-25T22:09:48.438Z,87.70
2018-06-25T22:12:18.991Z,87.70
2018-06-25T22:14:49.593Z,88.00
2018-06-25T22:17:20.166Z,88.20
2018-06-25T22:19:50.701Z,88.30
2018-06-25T22:22:21.278Z,88.10
2018-06-25T22:24:51.806Z,88.20
2018-06-25T22:27:22.416Z,88.30
2018-06-25T22:29:52.977Z,88.30
2018-06-25T22:32:23.577Z,88.30
2018-06-25T22:34:54.125Z,88.20
2018-06-25T22:37:24.789Z,87.90
2018-06-25T22:39:55.318Z,87.80
2018-06-25T22:42:27.805Z,87.70
2018-06-25T22:44:58.309Z,87.50
2018-06-25T22:49:58.990Z,87.30
2018-06-25T22:52:29.525Z,87.20
2018-06-25T22:55:00.131Z,87.10
2018-06-25T22:57:30.683Z,87.20
2018-06-25T23:00:01.299Z,87.00
2018-06-25T23:02:32.325Z,87.10
2018-06-25T23:05:03.006Z,87.40
2018-06-25T23:07:33.514Z,87.20
2018-06-25T23:10:04.130Z,86.60
2018-06-25T23:12:34.715Z,86.30
2018-06-25T23:15:05.381Z,86.10
2018-06-25T23:17:35.901Z,86.30
2018-06-25T23:20:06.489Z,86.50
2018-06-25T23:22:37.098Z,86.80
2018-06-25T23:25:07.808Z,87.00
2018-06-25T23:27:38.749Z,87.10
2018-06-25T23:30:09.310Z,87.00
2018-06-25T23:32:39.961Z,87.20
2018-06-25T23:35:10.585Z,87.30
2018-06-25T23:37:41.206Z,87.70
2018-06-25T23:40:12.405Z,87.90
2018-06-25T23:42:43.008Z,88.00
2018-06-25T23:45:13.713Z,88.80
2018-06-25T23:47:44.279Z,88.30
2018-06-25T23:50:14.921Z,88.80
2018-06-25T23:52:45.518Z,88.90
2018-06-25T23:55:16.327Z,88.90
2018-06-25T23:57:46.939Z,89.00
